Vilas, Colorado
Current Conditions -  °F | °C
As of 2:53 AM on Sunday 25 Jan 2015 (Local Time) from KLAA Reporting Station
Clear Clear  
Wind Chill: 32°   Ceiling: Unl
Heat Index: 41°   Visibility: 10mi
Dew Point: 26°   Wind: 21mph
Humidity: 55%   Direction: 350°N
Pressure: 30.08"   Gusts: 31mph
Location:  37.37°N, 102.45°W
Report Text: KLAA 250953Z AUTO 35018G27KT 10SM CLR 05/M03 A3008 RMK AO2 PK WND 01029/0912 SLP178 T00501033
Loading
Personal Weather Stations






























Interactive Weather Map New forecast layout! Learn more

10-Day Weather Forecast

Advertisements
Track Severe Weather on mobile